Have a Safe July 4th! 

Flight Track Log - Related Links

Times and Time Zones

All times are in EDT time to prevent confusion due to time zone crossing. See the TAM3751 flight status page for this flight to view local times or setup timezone preferences in your user account.

Time Position Orientation Groundspeed Altitude Reporting Facility
EDT Latitude Longitude Course Direction KTS MPH feet Rate Location/Type
Sun 12:29:32 AM -3.0390 -60.0360 90° East 166 191 600  Level FlightAware ADS-B
Sun 12:29:54 AM -3.0390 -60.0170 90° East 174 200 1,300 1,269 Climbing FlightAware ADS-B
Sun 12:30:24 AM -3.0390 -59.9920 90° East 200 230 1,700 882 Climbing FlightAware ADS-B
Sun 12:30:28 AM -3.0410 -59.9880 117° Southeast 202 232 1,800 1,000 Climbing FlightAware ADS-B
Sun 12:30:36 AM -3.0440 -59.9820 117° Southeast 210 242 1,900 750 Climbing FlightAware ADS-B
Sun 12:30:44 AM -3.0510 -59.9770 145° Southeast 222 255 2,000 750 Climbing FlightAware ADS-B
Sun 12:30:52 AM -3.0590 -59.9720 148° Southeast 237 273 2,100 1,071 Climbing FlightAware ADS-B
Sun 12:31:12 AM -3.0810 -59.9620 156° South 263 303 2,500 1,500 Climbing FlightAware ADS-B
Sun 12:31:32 AM -3.1030 -59.9530 158° South 273 314 3,100 2,400 Climbing FlightAware ADS-B
Sun 12:31:52 AM -3.1270 -59.9420 155° Southeast 273 314 4,100 2,864 Climbing FlightAware ADS-B
Sun 12:32:16 AM -3.1550 -59.9290 155° Southeast 269 310 5,200 2,667 Climbing FlightAware ADS-B
Sun 12:32:28 AM -3.1680 -59.9230 155° Southeast 270 311 5,700 2,438 Climbing FlightAware ADS-B
Sun 12:32:48 AM -3.1900 -59.9120 153° Southeast 272 313 6,500 2,195 Climbing FlightAware ADS-B
Sun 12:33:09 AM -3.2130 -59.9000 152° Southeast 275 316 7,200 2,045 Climbing FlightAware ADS-B
Sun 12:33:32 AM -3.2410 -59.8870 155° Southeast 280 322 8,000 2,182 Climbing FlightAware ADS-B
Sun 12:33:53 AM -3.2660 -59.8750 154° Southeast 284 327 8,800 2,100 Climbing FlightAware ADS-B
Sun 12:34:12 AM -3.2900 -59.8630 153° Southeast 291 335 9,400 1,886 Climbing FlightAware ADS-B
Sun 12:34:28 AM -3.3090 -59.8540 155° Southeast 295 339 9,900 1,500 Climbing FlightAware ADS-B
Sun 12:35:04 AM -3.3550 -59.8320 154° Southeast 314 361 10,700 1,059 Climbing FlightAware ADS-B
Sun 12:35:36 AM -3.3980 -59.8110 154° Southeast 342 394 11,100 1,130 Climbing FlightAware ADS-B
Sun 12:36:13 AM -3.4540 -59.7840 154° Southeast 360 414 12,000 1,583 Climbing FlightAware ADS-B
Sun 12:36:48 AM -3.5070 -59.7580 154° Southeast 368 423 13,000 1,791 Climbing FlightAware ADS-B
Sun 12:37:20 AM -3.5560 -59.7340 154° Southeast 370 426 14,000 1,765 Climbing FlightAware ADS-B
Sun 12:37:56 AM -3.6120 -59.7070 154° Southeast 376 433 15,000 1,583 Climbing FlightAware ADS-B
Sun 12:38:32 AM -3.6680 -59.6800 154° Southeast 381 438 15,900 1,588 Climbing FlightAware ADS-B
Sun 12:39:04 AM -3.7220 -59.6540 154° Southeast 384 442 16,800 1,588 Climbing FlightAware ADS-B
Sun 12:39:40 AM -3.7790 -59.6260 154° Southeast 387 445 17,700 692 Climbing FlightAware ADS-B
Sun 12:40:22 AM -3.8340 -59.5980 153° Southeast 387 445 17,700  Level FlightAware ADS-B
Sun 12:40:58 AM -3.8830 -59.5730 153° Southeast 387 445 17,700  Level FlightAware ADS-B
Sun 12:41:35 AM -3.9330 -59.5470 153° Southeast 387 445 17,700  Level FlightAware ADS-B
Sun 12:42:11 AM -3.9820 -59.5230 154° Southeast 387 445 17,700  Level FlightAware ADS-B
Sun 12:42:47 AM -4.0310 -59.4980 153° Southeast 387 445 17,700  Level FlightAware ADS-B
Sun 12:43:24 AM -4.0810 -59.4720 153° Southeast 387 445 17,700 123 Level FlightAware ADS-B
Sun 12:46:00 AM -4.3247 -59.3205 148° Southeast  Level Estimated
Sun 12:47:00 AM -4.4184 -59.2622 148° Southeast  Level Estimated
Sun 12:48:00 AM -4.5121 -59.2039 148° Southeast  Level Estimated
Sun 12:49:00 AM -4.6058 -59.1456 148° Southeast  Level Estimated
Sun 12:50:00 AM -4.6995 -59.0872 148° Southeast  Level Estimated
Sun 12:51:00 AM -4.7932 -59.0289 148° Southeast  Level Estimated
Sun 12:52:00 AM -4.8869 -58.9705 148° Southeast  Level Estimated
Sun 12:53:00 AM -4.9805 -58.9122 148° Southeast  Level Estimated
Sun 12:54:00 AM -5.0742 -58.8537 148° Southeast  Level Estimated
Sun 12:55:00 AM -5.1679 -58.7953 148° Southeast  Level Estimated
Sun 12:56:00 AM -5.2616 -58.7369 148° Southeast  Level Estimated
Sun 12:57:00 AM -5.3552 -58.6785 148° Southeast  Level Estimated
Sun 12:58:00 AM -5.4489 -58.6200 148° Southeast  Level Estimated
Sun 12:59:00 AM -5.5425 -58.5615 148° Southeast  Level Estimated
Sun 01:00:00 AM -5.6362 -58.5030 148° Southeast  Level Estimated
Sun 01:01:00 AM -5.7298 -58.4445 148° Southeast  Level Estimated
Sun 01:02:00 AM -5.8235 -58.3859 148° Southeast  Level Estimated
Sun 01:03:00 AM -5.9171 -58.3274 148° Southeast  Level Estimated
Sun 01:04:00 AM -6.0107 -58.2688 148° Southeast  Level Estimated
Sun 01:05:00 AM -6.1043 -58.2102 148° Southeast  Level Estimated
Sun 01:06:00 AM -6.1979 -58.1516 148° Southeast  Level Estimated
Sun 01:07:00 AM -6.2915 -58.0929 148° Southeast  Level Estimated
Sun 01:08:00 AM -6.3851 -58.0342 148° Southeast  Level Estimated
Sun 01:09:00 AM -6.4787 -57.9755 148° Southeast  Level Estimated
Sun 01:10:00 AM -6.5723 -57.9168 148° Southeast  Level Estimated
Sun 01:11:00 AM -6.6659 -57.8581 148° Southeast  Level Estimated
Sun 01:12:00 AM -6.7595 -57.7994 148° Southeast  Level Estimated
Sun 01:13:00 AM -6.8530 -57.7406 148° Southeast  Level Estimated
Sun 01:14:00 AM -6.9466 -57.6818 148° Southeast  Level Estimated
Sun 01:15:00 AM -7.0401 -57.6230 148° Southeast  Level Estimated
Sun 01:16:00 AM -7.1337 -57.5641 148° Southeast  Level Estimated
Sun 01:17:00 AM -7.2272 -57.5052 148° Southeast  Level Estimated
Sun 01:18:00 AM -7.3207 -57.4463 148° Southeast  Level Estimated
Sun 01:19:00 AM -7.4142 -57.3874 148° Southeast  Level Estimated
Sun 01:20:00 AM -7.5078 -57.3285 148° Southeast  Level Estimated
Sun 01:21:00 AM -7.6013 -57.2695 148° Southeast  Level Estimated
Sun 01:22:00 AM -7.6947 -57.2105 148° Southeast  Level Estimated
Sun 01:23:00 AM -7.7882 -57.1515 148° Southeast  Level Estimated
Sun 01:24:00 AM -7.8817 -57.0924 148° Southeast  Level Estimated
Sun 01:25:00 AM -7.9752 -57.0333 148° Southeast  Level Estimated
Sun 01:26:00 AM -8.0686 -56.9742 148° Southeast  Level Estimated
Sun 01:27:00 AM -8.1621 -56.9151 148° Southeast  Level Estimated
Sun 01:28:00 AM -8.2555 -56.8559 148° Southeast  Level Estimated
Sun 01:29:00 AM -8.3490 -56.7968 148° Southeast  Level Estimated
Sun 01:30:00 AM -8.4424 -56.7375 148° Southeast  Level Estimated
Sun 01:31:00 AM -8.5358 -56.6783 148° Southeast  Level Estimated
Sun 01:32:00 AM -8.6292 -56.6190 148° Southeast  Level Estimated
Sun 01:33:00 AM -8.7226 -56.5597 148° Southeast  Level Estimated
Sun 01:34:00 AM -8.8160 -56.5004 148° Southeast  Level Estimated
Sun 01:35:00 AM -8.9094 -56.4411 148° Southeast  Level Estimated
Sun 01:36:00 AM -9.0028 -56.3817 148° Southeast  Level Estimated
Sun 01:37:00 AM -9.0961 -56.3222 148° Southeast  Level Estimated
Sun 01:38:00 AM -9.1895 -56.2628 148° Southeast  Level Estimated
Sun 01:39:00 AM -9.2828 -56.2033 148° Southeast  Level Estimated
Sun 01:40:00 AM -9.3762 -56.1438 148° Southeast  Level Estimated
Sun 01:41:00 AM -9.4695 -56.0842 148° Southeast  Level Estimated
Sun 01:42:00 AM -9.5628 -56.0247 148° Southeast  Level Estimated
Sun 01:43:00 AM -9.6561 -55.9650 148° Southeast  Level Estimated
Sun 01:44:00 AM -9.7494 -55.9054 148° Southeast  Level Estimated
Sun 01:45:00 AM -9.8427 -55.8457 148° Southeast  Level Estimated
Sun 01:46:00 AM -9.9359 -55.7860 148° Southeast  Level Estimated
Sun 01:47:00 AM -10.0292 -55.7263 148° Southeast  Level Estimated
Sun 01:48:00 AM -10.1224 -55.6665 148° Southeast  Level Estimated
Sun 01:49:00 AM -10.2157 -55.6067 148° Southeast  Level Estimated
Sun 01:50:00 AM -10.3089 -55.5468 148° Southeast  Level Estimated
Sun 01:51:00 AM -10.4021 -55.4869 148° Southeast  Level Estimated
Sun 01:52:00 AM -10.4953 -55.4270 148° Southeast  Level Estimated
Sun 01:53:00 AM -10.5885 -55.3670 148° Southeast  Level Estimated
Sun 01:54:00 AM -10.6817 -55.3070 148° Southeast  Level Estimated
Sun 01:55:00 AM -10.7749 -55.2470 148° Southeast  Level Estimated
Sun 01:56:00 AM -10.8680 -55.1869 148° Southeast  Level Estimated
Sun 01:57:00 AM -10.9612 -55.1268 148° Southeast  Level Estimated
Sun 01:58:00 AM -11.0543 -55.0667 148° Southeast  Level Estimated
Sun 01:59:00 AM -11.1475 -55.0065 148° Southeast  Level Estimated
Sun 02:00:00 AM -11.2406 -54.9463 148° Southeast  Level Estimated
Sun 02:01:00 AM -11.3337 -54.8860 148° Southeast  Level Estimated
Sun 02:02:00 AM -11.4268 -54.8257 148° Southeast  Level Estimated
Sun 02:03:00 AM -11.5198 -54.7654 148° Southeast  Level Estimated
Sun 02:04:00 AM -11.6129 -54.7050 148° Southeast  Level Estimated
Sun 02:05:00 AM -11.7059 -54.6446 148° Southeast  Level Estimated
Sun 02:06:00 AM -11.7990 -54.5841 148° Southeast  Level Estimated
Sun 02:07:00 AM -11.8920 -54.5236 148° Southeast  Level Estimated
Sun 02:08:00 AM -11.9850 -54.4631 148° Southeast  Level Estimated
Sun 02:09:00 AM -12.0780 -54.4025 148° Southeast  Level Estimated
Sun 02:10:00 AM -12.1710 -54.3419 147° Southeast  Level Estimated
Sun 02:11:00 AM -12.2640 -54.2812 147° Southeast  Level Estimated
Sun 02:12:00 AM -12.3569 -54.2205 147° Southeast  Level Estimated
Sun 02:13:00 AM -12.4499 -54.1598 147° Southeast  Level Estimated
Sun 02:14:00 AM -12.5428 -54.0989 147° Southeast  Level Estimated
Sun 02:15:00 AM -12.6357 -54.0381 147° Southeast  Level Estimated
Sun 02:16:00 AM -12.7287 -53.9772 147° Southeast  Level Estimated
Sun 02:17:00 AM -12.8216 -53.9163 147° Southeast  Level Estimated
Sun 02:18:00 AM -12.9144 -53.8553 147° Southeast  Level Estimated
Sun 02:19:00 AM -13.0073 -53.7943 147° Southeast  Level Estimated
Sun 02:20:00 AM -13.1001 -53.7332 147° Southeast  Level Estimated
Sun 02:21:00 AM -13.1930 -53.6721 147° Southeast  Level Estimated
Sun 02:22:00 AM -13.2858 -53.6110 147° Southeast  Level Estimated
Sun 02:23:00 AM -13.3786 -53.5497 147° Southeast  Level Estimated
Sun 02:24:00 AM -13.4714 -53.4885 147° Southeast  Level Estimated
Sun 02:25:00 AM -13.5642 -53.4272 147° Southeast  Level Estimated
Sun 02:26:00 AM -13.6569 -53.3658 147° Southeast  Level Estimated
Sun 02:27:00 AM -13.7497 -53.3044 147° Southeast  Level Estimated
Sun 02:28:00 AM -13.8424 -53.2430 147° Southeast  Level Estimated
Sun 02:29:00 AM -13.9351 -53.1815 147° Southeast  Level Estimated
Sun 02:30:00 AM -14.0278 -53.1200 147° Southeast  Level Estimated
Sun 02:31:00 AM -14.1205 -53.0584 147° Southeast  Level Estimated
Sun 02:32:00 AM -14.2132 -52.9967 147° Southeast  Level Estimated
Sun 02:33:00 AM -14.3059 -52.9350 147° Southeast  Level Estimated
Sun 02:34:00 AM -14.3985 -52.8733 147° Southeast  Level Estimated
Sun 02:35:00 AM -14.4911 -52.8115 147° Southeast  Level Estimated
Sun 02:36:00 AM -14.5837 -52.7496 147° Southeast  Level Estimated
Sun 02:37:00 AM -14.6763 -52.6877 147° Southeast  Level Estimated
Sun 02:38:00 AM -14.7689 -52.6258 147° Southeast  Level Estimated
Sun 02:39:00 AM -14.8614 -52.5638 147° Southeast  Level Estimated
Sun 02:40:00 AM -14.9540 -52.5017 147° Southeast  Level Estimated
Sun 02:41:00 AM -15.0465 -52.4396 147° Southeast  Level Estimated
Sun 02:42:00 AM -15.1390 -52.3774 147° Southeast  Level Estimated
Sun 02:43:00 AM -15.2315 -52.3152 147° Southeast  Level Estimated
Sun 02:44:00 AM -15.3240 -52.2529 147° Southeast  Level Estimated
Sun 02:45:00 AM -15.4164 -52.1906 147° Southeast  Level Estimated
Sun 02:46:00 AM -15.5089 -52.1282 147° Southeast  Level Estimated
Sun 02:47:00 AM -15.6013 -52.0658 147° Southeast  Level Estimated
Sun 02:48:00 AM -15.6937 -52.0033 147° Southeast  Level Estimated
Sun 02:49:00 AM -15.7861 -51.9407 147° Southeast  Level Estimated
Sun 02:50:00 AM -15.8784 -51.8781 147° Southeast  Level Estimated
Sun 02:51:00 AM -15.9708 -51.8154 147° Southeast  Level Estimated
Sun 02:52:00 AM -16.0631 -51.7527 147° Southeast  Level Estimated
Sun 02:53:00 AM -16.1554 -51.6899 147° Southeast  Level Estimated
Sun 02:54:00 AM -16.2477 -51.6271 147° Southeast  Level Estimated
Sun 02:55:00 AM -16.3400 -51.5642 147° Southeast  Level Estimated
Sun 02:56:00 AM -16.4322 -51.5012 147° Southeast  Level Estimated
Sun 02:57:00 AM -16.5245 -51.4382 147° Southeast  Level Estimated
Sun 02:58:00 AM -16.6167 -51.3751 147° Southeast  Level Estimated
Sun 02:59:00 AM -16.7089 -51.3120 147° Southeast  Level Estimated
Sun 03:00:00 AM -16.8011 -51.2488 147° Southeast  Level Estimated
Sun 03:01:00 AM -16.8932 -51.1855 147° Southeast  Level Estimated
Sun 03:02:00 AM -16.9854 -51.1222 147° Southeast  Level Estimated
Sun 03:03:00 AM -17.0775 -51.0588 147° Southeast  Level Estimated
Sun 03:03:33 AM -18.6890 -50.1190 147° Southeast 438 504 35,000  Level FlightAware ADS-B
Sun 03:04:00 AM -17.1696 -50.9953 147° Southeast  Level Estimated
Sun 03:04:09 AM -18.7470 -50.0720 143° Southeast 438 504 35,000  Level FlightAware ADS-B
Sun 03:04:59 AM -18.8190 -50.0110 141° Southeast 439 505 35,000  Level FlightAware ADS-B
Sun 03:05:35 AM -18.8670 -49.9700 141° Southeast 439 505 35,000  Level FlightAware ADS-B
Sun 03:06:05 AM -18.9340 -49.9180 144° Southeast 441 507 35,000  Level FlightAware ADS-B
Sun 03:06:42 AM -18.9930 -49.8690 142° Southeast 442 509 35,000  Level FlightAware ADS-B
Sun 03:07:17 AM -19.0500 -49.8230 143° Southeast 442 509 35,000  Level FlightAware ADS-B
Sun 03:07:53 AM -19.1090 -49.7740 142° Southeast 443 510 35,000  Level FlightAware ADS-B
Sun 03:08:25 AM -19.1590 -49.7330 142° Southeast 443 510 35,000  Level FlightAware ADS-B
Sun 03:09:01 AM -19.2190 -49.6830 142° Southeast 443 510 35,000  Level FlightAware ADS-B
Sun 03:09:37 AM -19.2760 -49.6360 142° Southeast 443 510 35,000  Level FlightAware ADS-B
Sun 03:10:14 AM -19.3360 -49.5870 142° Southeast 443 510 35,000  Level FlightAware ADS-B
Sun 03:10:45 AM -19.3870 -49.5440 142° Southeast 445 512 35,000  Level FlightAware ADS-B
Sun 03:11:19 AM -19.4410 -49.5000 142° Southeast 445 512 35,000  Level FlightAware ADS-B
Sun 03:11:55 AM -19.4990 -49.4510 141° Southeast 444 511 35,000  Level FlightAware ADS-B
Sun 03:12:26 AM -19.5500 -49.4090 142° Southeast 445 512 35,000  Level FlightAware ADS-B
Sun 03:13:01 AM -19.6060 -49.3630 142° Southeast 444 511 35,000  Level FlightAware ADS-B
Sun 03:13:39 AM -19.6680 -49.3110 142° Southeast 444 511 35,000  Level FlightAware ADS-B
Sun 03:14:15 AM -19.7270 -49.2620 142° Southeast 445 512 35,000  Level FlightAware ADS-B
Sun 03:14:47 AM -19.7800 -49.2180 142° Southeast 446 513 35,000  Level FlightAware ADS-B
Sun 03:15:23 AM -19.8370 -49.1700 142° Southeast 447 514 35,000  Level FlightAware ADS-B
Sun 03:15:57 AM -19.8930 -49.1240 142° Southeast 447 514 35,000  Level FlightAware ADS-B
Sun 03:16:35 AM -19.9540 -49.0720 141° Southeast 446 513 35,000  Level FlightAware ADS-B
Sun 03:17:06 AM -20.0050 -49.0300 142° Southeast 446 513 35,000  Level FlightAware ADS-B
Sun 03:17:43 AM -20.0640 -48.9800 141° Southeast 446 513 35,000  Level FlightAware ADS-B
Sun 03:18:19 AM -20.1220 -48.9320 142° Southeast 447 514 35,000  Level FlightAware ADS-B
Sun 03:18:52 AM -20.1740 -48.8890 142° Southeast 449 517 35,000  Level FlightAware ADS-B
Sun 03:19:27 AM -20.2330 -48.8380 141° Southeast 449 517 35,000  Level FlightAware ADS-B
Sun 03:20:03 AM -20.2910 -48.7900 142° Southeast 450 518 35,000  Level FlightAware ADS-B
Sun 03:20:39 AM -20.3510 -48.7390 141° Southeast 450 518 35,000  Level FlightAware ADS-B
Sun 03:21:11 AM -20.4030 -48.6960 142° Southeast 449 517 35,000  Level FlightAware ADS-B
Sun 03:21:47 AM -20.4610 -48.6470 142° Southeast 449 517 35,000  Level FlightAware ADS-B
Sun 03:22:23 AM -20.5200 -48.5970 142° Southeast 449 517 35,000  Level FlightAware ADS-B
Sun 03:22:59 AM -20.5790 -48.5470 142° Southeast 449 517 35,000  Level FlightAware ADS-B
Sun 03:23:31 AM -20.6310 -48.5030 142° Southeast 449 517 35,000  Level FlightAware ADS-B
Sun 03:24:07 AM -20.6890 -48.4540 142° Southeast 451 519 35,000  Level FlightAware ADS-B
Sun 03:24:43 AM -20.7490 -48.4030 142° Southeast 451 519 35,000  Level FlightAware ADS-B
Sun 03:25:19 AM -20.8070 -48.3540 142° Southeast 451 519 35,000  Level FlightAware ADS-B
Sun 03:25:51 AM -20.8620 -48.3070 141° Southeast 451 519 35,000  Level FlightAware ADS-B
Sun 03:26:25 AM -20.9160 -48.2610 141° Southeast 451 519 35,000  Level FlightAware ADS-B
Sun 03:27:03 AM -20.9770 -48.2090 141° Southeast 451 519 35,000  Level FlightAware ADS-B
Sun 03:27:39 AM -21.0360 -48.1600 142° Southeast 451 519 35,000  Level FlightAware ADS-B
Sun 03:28:11 AM -21.0890 -48.1150 142° Southeast 451 519 35,000  Level FlightAware ADS-B
Sun 03:28:47 AM -21.1480 -48.0640 141° Southeast 450 518 35,000  Level FlightAware ADS-B
Sun 03:29:21 AM -21.2050 -48.0150 141° Southeast 449 517 35,000  Level FlightAware ADS-B
Sun 03:29:55 AM -21.2610 -47.9670 141° Southeast 449 517 35,000  Level FlightAware ADS-B
Sun 03:30:33 AM -21.3190 -47.9170 141° Southeast 450 518 35,000  Level FlightAware ADS-B
Sun 03:31:09 AM -21.3790 -47.8660 142° Southeast 449 517 35,000  Level FlightAware ADS-B
Sun 03:31:45 AM -21.4360 -47.8170 141° Southeast 448 516 35,000  Level FlightAware ADS-B
Sun 03:32:17 AM -21.4890 -47.7720 142° Southeast 449 517 35,000  Level FlightAware ADS-B
Sun 03:32:53 AM -21.5450 -47.7230 141° Southeast 450 518 35,000  Level FlightAware ADS-B
Sun 03:33:29 AM -21.6080 -47.6750 145° Southeast 443 510 35,000  Level FlightAware ADS-B
Sun 03:34:05 AM -21.6720 -47.6370 151° Southeast 441 507 35,000  Level FlightAware ADS-B
Sun 03:34:37 AM -21.7290 -47.6040 152° Southeast 451 519 35,000  Level FlightAware ADS-B
Sun 03:35:13 AM -21.8010 -47.5610 151° Southeast 455 524 35,000 -750 Level FlightAware ADS-B
Sun 03:35:49 AM -21.8620 -47.5250 151° Southeast 455 524 34,100 -1,917 Descending FlightAware ADS-B
Sun 03:36:25 AM -21.9300 -47.4840 151° Southeast 461 531 32,700 -2,382 Descending FlightAware ADS-B
Sun 03:36:57 AM -21.9900 -47.4480 151° Southeast 473 544 31,400 -2,364 Descending FlightAware ADS-B
Sun 03:37:31 AM -22.0560 -47.4090 151° Southeast 481 554 30,100 -2,333 Descending FlightAware ADS-B
Sun 03:38:09 AM -22.1290 -47.3650 151° Southeast 474 545 28,600 -2,351 Descending FlightAware ADS-B
Sun 03:38:45 AM -22.2040 -47.3210 151° Southeast 487 560 27,200 -2,382 Descending FlightAware ADS-B
Sun 03:39:17 AM -22.2670 -47.2830 151° Southeast 504 580 25,900 -2,382 Descending FlightAware ADS-B
Sun 03:39:53 AM -22.3400 -47.2400 151° Southeast 517 595 24,500 -2,417 Descending FlightAware ADS-B
Sun 03:40:29 AM -22.4200 -47.1920 151° Southeast 521 600 23,000 -2,333 Descending FlightAware ADS-B
Sun 03:41:05 AM -22.4930 -47.1480 151° Southeast 509 586 21,700 -2,118 Descending FlightAware ADS-B
Sun 03:41:37 AM -22.5580 -47.1090 151° Southeast 489 563 20,600 -2,382 Descending FlightAware ADS-B
Sun 03:42:13 AM -22.6330 -47.0740 157° South 472 543 19,000 -2,769 Descending FlightAware ADS-B
Sun 03:42:55 AM -22.7160 -47.0390 159° South 462 532 17,000 -2,385 Descending FlightAware ADS-B
Sun 03:43:31 AM -22.7880 -47.0090 159° South 446 513 15,900 -1,333 Descending FlightAware ADS-B
Sun 03:44:07 AM -22.8550 -46.9810 159° South 428 493 15,400 -1,254 Descending FlightAware ADS-B
Sun 03:44:38 AM -22.9110 -46.9570 158° South 421 484 14,500 -2,294 Descending FlightAware ADS-B
Sun 03:45:15 AM -22.9790 -46.9290 159° South 423 487 12,800 -2,630 Descending FlightAware ADS-B
Sun 03:45:51 AM -23.0450 -46.9010 159° South 414 476 11,300 -1,765 Descending FlightAware ADS-B
Sun 03:46:23 AM -23.1020 -46.8770 159° South 384 442 10,800 -971 Descending FlightAware ADS-B
Sun 03:46:59 AM -23.1570 -46.8530 158° South 339 390 10,200 -964 Descending FlightAware ADS-B
Sun 03:47:19 AM -23.1840 -46.8420 159° South 321 369 9,900 -1,636 Descending FlightAware ADS-B
Sun 03:47:43 AM -23.2180 -46.8280 159° South 313 360 9,000 -1,909 Descending FlightAware ADS-B
Sun 03:48:03 AM -23.2450 -46.8170 159° South 313 360 8,500 -1,500 Descending FlightAware ADS-B
Sun 03:48:23 AM -23.2720 -46.8050 158° South 312 359 8,000 -1,350 Descending FlightAware ADS-B
Sun 03:48:43 AM -23.2960 -46.7950 159° South 308 354 7,600 -1,500 Descending FlightAware ADS-B
Sun 03:49:07 AM -23.3310 -46.7800 159° South 307 353 6,900 -1,227 Descending FlightAware ADS-B
Sun 03:49:27 AM -23.3560 -46.7690 158° South 295 339 6,700 -563 Descending FlightAware ADS-B
Sun 03:49:39 AM -23.3710 -46.7620 157° South 286 329 6,600 -300 Descending FlightAware ADS-B
Sun 03:49:47 AM -23.3800 -46.7550 144° Southeast 280 322 6,600 -429 Level FlightAware ADS-B
Sun 03:50:07 AM -23.3990 -46.7380 141° Southeast 270 311 6,400 -667 Descending FlightAware ADS-B
Sun 03:50:23 AM -23.4140 -46.7240 139° Southeast 255 293 6,200 -667 Descending FlightAware ADS-B
Sun 03:50:43 AM -23.4310 -46.7080 139° Southeast 238 274 6,000 -682 Descending FlightAware ADS-B
Sun 03:51:07 AM -23.4490 -46.6890 136° Southeast 210 242 5,700 -643 Descending FlightAware ADS-B
Sun 03:51:11 AM -23.4510 -46.6850 119° Southeast 200 230 5,700 -600 Level FlightAware ADS-B
Sun 03:51:27 AM -23.4570 -46.6720 117° Southeast 190 219 5,500 -667 Descending FlightAware ADS-B
Sun 03:51:47 AM -23.4640 -46.6540 113° Southeast 177 204 5,300 -750 Descending FlightAware ADS-B
Sun 03:52:07 AM -23.4710 -46.6380 116° Southeast 176 203 5,000 -1,000 Descending FlightAware ADS-B
Sun 03:52:23 AM -23.4740 -46.6240 103° East 170 196 4,700 -667 Descending FlightAware ADS-B
Sun 03:52:43 AM -23.4720 -46.6090 82° East 160 184 4,600 -375 Descending FlightAware ADS-B
Sun 03:52:55 AM -23.4690 -46.6000 70° East 157 181 4,500 -833 Descending FlightAware ADS-B
Sun 03:53:19 AM -23.4640 -46.5820 73° East 159 183 4,100 -955 Descending FlightAware ADS-B
Sun 03:53:39 AM -23.4600 -46.5660 75° East 154 177 3,800 -878 Descending FlightAware ADS-B
Sun 03:54:00 AM -23.4560 -46.5510 74° East 154 177 3,500 -833 Descending FlightAware ADS-B
Sun 03:54:15 AM -23.4530 -46.5400 73° East 154 177 3,300 -686 Descending FlightAware ADS-B
Sun 03:54:35 AM -23.4490 -46.5250 74° East 153 176 3,100 -615 Descending FlightAware ADS-B
Sun 03:54:54 AM -23.4460 -46.5120 76° East 150 173 2,900 -750 Descending FlightAware ADS-B
Sun 03:55:15 AM -23.4420 -46.4980 73° East 150 173 2,600 -585 Descending FlightAware ADS-B
Sun 03:55:35 AM -23.4400 -46.4920 70° East 152 175 2,500 -130 Descending FlightAware ADS-B
Sun 03:56:01 AM -23.4360 -46.4760 75° East 152 175 2,500  Level FlightAware ADS-B
Sun 03:58:00 AM -23.4321 -46.4695 57° Northeast  Level Estimated
Sun 03:59:00 AM -23.4321 -46.4695 350° North  Level Estimated
Sun 04:00:00 AM -23.4321 -46.4695 350° North  Level Estimated
Sun 04:01:00 AM -23.4321 -46.4695 350° North  Level Estimated
Sun 04:02:00 AM -23.4321 -46.4695 350° North  Level Estimated
Sun 04:03:00 AM -23.4321 -46.4695 350° North  Level Estimated
Sun 04:04:00 AM -23.4321 -46.4695 350° North  Level Estimated
Sun 04:05:00 AM -23.4321 -46.4695 350° North  Level Estimated
Sun 04:06:00 AM -23.4321 -46.4695 350° North  Level Estimated
Sun 04:07:00 AM -23.4321 -46.4695 350° North  Level Estimated
Sun 04:08:00 AM -23.4321 -46.4695 350° North  Level Estimated
Sun 04:09:00 AM -23.4321 -46.4695 350° North  Level Estimated
Sun 04:10:00 AM -23.4321 -46.4695 350° North  Level Estimated
Sun 04:11:00 AM -23.4321 -46.4695 350° North  Level Estimated
Sun 04:12:00 AM -23.4321 -46.4695 350° North  Level Estimated
Sun 04:13:00 AM -23.4321 -46.4695 350° North  Level Estimated
Sun 04:14:00 AM -23.4321 -46.4695 350° North  Level Estimated
Sun 04:15:00 AM -23.4321 -46.4695 350° North  Level Estimated
Sun 04:16:00 AM -23.4321 -46.4695 350° North  Level Estimated
Sun 04:17:00 AM -23.4321 -46.4695 350° North  Level Estimated
Sun 04:18:00 AM -23.4321 -46.4695 350° North  Level Estimated
Sun 04:19:00 AM -23.4321 -46.4695 350° North  Level Estimated
Sun 04:20:00 AM -23.4321 -46.4695 350° North  Level Estimated
Sun 04:21:00 AM -23.4321 -46.4695 350° North  Level Estimated
Sun 04:22:00 AM -23.4321 -46.4695 350° North  Level Estimated
Sun 04:23:00 AM -23.4321 -46.4695 350° North  Level Estimated
Sun 04:24:00 AM -23.4321 -46.4695 350° North  Level Estimated
Sun 04:25:00 AM -23.4321 -46.4695 350° North  Level Estimated

Login

Don't have an account? Register now (free) for customized features, flight alerts, and more!